createdAt,value
2023-02-12T00:00:22.582Z,44.90
2023-02-12T00:01:22.544Z,41.90
2023-02-12T00:02:22.581Z,41.40
2023-02-12T00:03:22.539Z,39.80
2023-02-12T00:04:22.522Z,41.60
2023-02-12T00:05:22.516Z,37.30
2023-02-12T00:06:22.516Z,40.70
2023-02-12T00:07:22.498Z,45.30
2023-02-12T00:08:22.485Z,49.00
2023-02-12T00:09:22.485Z,48.90
2023-02-12T00:10:22.472Z,48.40
2023-02-12T00:11:22.469Z,48.70
2023-02-12T00:12:22.455Z,48.40
2023-02-12T00:13:22.463Z,46.40
2023-02-12T00:14:22.450Z,47.60
2023-02-12T00:15:22.432Z,48.40
2023-02-12T00:16:22.583Z,47.80
2023-02-12T00:17:22.419Z,48.20
2023-02-12T00:18:22.410Z,48.80
2023-02-12T00:19:22.408Z,48.00
2023-02-12T00:20:22.393Z,48.80
2023-02-12T00:21:22.395Z,51.20
2023-02-12T00:22:22.387Z,51.20
2023-02-12T00:23:22.371Z,49.00
2023-02-12T00:24:22.363Z,49.20
2023-02-12T00:25:22.356Z,47.70
2023-02-12T00:26:22.348Z,42.60
2023-02-12T00:27:22.339Z,44.00
2023-02-12T00:28:22.545Z,46.20
2023-02-12T00:29:22.337Z,48.80
2023-02-12T00:30:22.356Z,49.00
2023-02-12T00:31:22.534Z,47.40
2023-02-12T00:32:22.319Z,46.00
2023-02-12T00:33:22.301Z,42.20
2023-02-12T00:34:22.288Z,45.30
2023-02-12T00:35:22.283Z,41.60
2023-02-12T00:36:22.273Z,41.90
2023-02-12T00:37:22.267Z,40.70
2023-02-12T00:38:22.262Z,37.30
2023-02-12T00:39:22.249Z,39.50
2023-02-12T00:40:22.242Z,37.20
2023-02-12T00:41:22.235Z,35.20
2023-02-12T00:42:22.224Z,34.90
2023-02-12T00:43:22.217Z,34.80
2023-02-12T00:44:22.222Z,37.00
2023-02-12T00:45:22.207Z,36.10
2023-02-12T00:46:22.253Z,38.30
2023-02-12T00:47:22.190Z,38.50
2023-02-12T00:48:22.199Z,37.20
2023-02-12T00:49:22.182Z,37.80
2023-02-12T00:50:22.170Z,36.60
2023-02-12T00:51:22.158Z,39.30
2023-02-12T00:52:22.159Z,43.40
2023-02-12T00:53:22.144Z,41.60
2023-02-12T00:54:22.141Z,41.30
2023-02-12T00:55:22.125Z,45.00
2023-02-12T00:56:22.129Z,44.40
2023-02-12T00:57:22.113Z,41.50
2023-02-12T00:58:22.100Z,39.80
2023-02-12T00:59:22.098Z,39.90
2023-02-12T01:00:22.121Z,39.50
2023-02-12T01:01:22.124Z,42.00
2023-02-12T01:02:22.079Z,43.90
2023-02-12T01:03:22.072Z,42.80
2023-02-12T01:04:22.084Z,46.20
2023-02-12T01:05:22.116Z,44.10
2023-02-12T01:06:22.052Z,44.60
2023-02-12T01:07:22.038Z,42.90
2023-02-12T01:08:22.037Z,45.10
2023-02-12T01:09:22.021Z,40.70
2023-02-12T01:10:22.043Z,37.70
2023-02-12T01:11:22.014Z,39.20
2023-02-12T01:12:21.998Z,40.00
2023-02-12T01:13:21.993Z,41.10
2023-02-12T01:14:22.234Z,42.00
2023-02-12T01:15:21.975Z,42.70
2023-02-12T01:16:22.145Z,41.60
2023-02-12T01:17:21.964Z,43.40
2023-02-12T01:18:21.957Z,44.80
2023-02-12T01:19:21.949Z,47.30
2023-02-12T01:20:21.955Z,48.40
2023-02-12T01:21:21.933Z,42.30
2023-02-12T01:22:21.922Z,39.40
2023-02-12T01:23:21.923Z,42.90
2023-02-12T01:24:21.910Z,45.50
2023-02-12T01:25:21.900Z,46.80
2023-02-12T01:26:21.891Z,46.30
2023-02-12T01:27:21.888Z,45.90
2023-02-12T01:28:21.901Z,44.50
2023-02-12T01:29:21.873Z,44.40
2023-02-12T01:30:21.863Z,44.10
2023-02-12T01:31:22.015Z,44.50
2023-02-12T01:32:21.928Z,39.50
2023-02-12T01:33:21.851Z,37.10
2023-02-12T01:34:21.830Z,35.40
2023-02-12T01:35:21.824Z,36.90
2023-02-12T01:36:21.832Z,39.40
2023-02-12T01:37:21.808Z,37.70
2023-02-12T01:38:21.798Z,40.90
2023-02-12T01:39:21.793Z,43.30
2023-02-12T01:40:21.790Z,39.40
2023-02-12T01:41:21.794Z,36.00
2023-02-12T01:42:21.781Z,35.60
2023-02-12T01:43:21.766Z,40.20
2023-02-12T01:44:21.753Z,39.40
2023-02-12T01:45:21.754Z,35.40
2023-02-12T01:46:21.784Z,35.70
2023-02-12T01:47:21.737Z,36.40
2023-02-12T01:48:21.719Z,37.90
2023-02-12T01:49:21.713Z,37.00
2023-02-12T01:50:21.707Z,39.70
2023-02-12T01:51:21.700Z,42.50
2023-02-12T01:52:21.708Z,40.80
2023-02-12T01:53:21.688Z,41.20
2023-02-12T01:54:21.675Z,40.30
2023-02-12T01:55:21.686Z,40.40
2023-02-12T01:56:21.660Z,41.10
2023-02-12T01:57:21.653Z,40.80
2023-02-12T01:58:21.642Z,34.90
2023-02-12T01:59:21.640Z,35.30
2023-02-12T02:00:21.631Z,33.60
2023-02-12T02:01:21.664Z,33.60
2023-02-12T02:02:21.615Z,35.90
2023-02-12T02:03:21.642Z,37.60
2023-02-12T02:04:21.599Z,38.30
2023-02-12T02:05:21.595Z,38.20
2023-02-12T02:06:21.582Z,37.30
2023-02-12T02:07:21.577Z,36.00
2023-02-12T02:08:21.594Z,36.70
2023-02-12T02:09:21.562Z,35.60
2023-02-12T02:10:21.550Z,32.80
2023-02-12T02:11:21.543Z,33.40
2023-02-12T02:12:21.538Z,34.50
2023-02-12T02:13:21.530Z,33.90
2023-02-12T02:14:21.519Z,32.30
2023-02-12T02:15:21.512Z,34.10
2023-02-12T02:16:21.522Z,34.60
2023-02-12T02:17:21.497Z,35.40
2023-02-12T02:18:21.484Z,35.50
2023-02-12T02:19:21.931Z,37.70
2023-02-12T02:20:21.473Z,37.90
2023-02-12T02:21:21.464Z,39.50
2023-02-12T02:22:21.454Z,40.70
2023-02-12T02:23:21.448Z,38.70
2023-02-12T02:24:21.475Z,38.00
2023-02-12T02:25:21.433Z,38.70
2023-02-12T02:26:21.419Z,38.00
2023-02-12T02:27:21.415Z,36.70
2023-02-12T02:28:21.466Z,37.60
2023-02-12T02:29:21.406Z,37.40
2023-02-12T02:30:21.390Z,37.00
2023-02-12T02:31:21.554Z,38.60
2023-02-12T02:32:21.380Z,36.20
2023-02-12T02:33:21.371Z,36.20
2023-02-12T02:34:21.367Z,32.80
2023-02-12T02:35:21.352Z,33.30
2023-02-12T02:36:22.609Z,34.50
2023-02-12T02:37:21.336Z,35.40
2023-02-12T02:38:21.332Z,38.20
2023-02-12T02:39:21.321Z,41.30
2023-02-12T02:40:21.337Z,41.70
2023-02-12T02:41:21.311Z,44.00
2023-02-12T02:42:21.299Z,44.90
2023-02-12T02:43:21.289Z,45.50
2023-02-12T02:44:21.282Z,42.60
2023-02-12T02:45:21.274Z,43.80
2023-02-12T02:46:21.321Z,44.10
2023-02-12T02:47:21.256Z,40.70
2023-02-12T02:48:21.250Z,39.80
2023-02-12T02:49:21.243Z,37.50
2023-02-12T02:50:21.243Z,37.50
2023-02-12T02:51:21.241Z,34.70
2023-02-12T02:52:21.222Z,35.50
2023-02-12T02:53:21.212Z,36.30
2023-02-12T02:54:21.211Z,36.90
2023-02-12T02:55:21.195Z,37.20
2023-02-12T02:56:21.215Z,37.80
2023-02-12T02:57:21.182Z,44.00
2023-02-12T02:58:21.174Z,44.10
2023-02-12T02:59:21.164Z,42.50
2023-02-12T03:00:21.160Z,38.70
2023-02-12T03:01:21.264Z,40.40
2023-02-12T03:02:21.149Z,42.60
2023-02-12T03:03:21.198Z,44.50
2023-02-12T03:04:21.129Z,43.70
2023-02-12T03:05:21.116Z,45.10
2023-02-12T03:06:21.117Z,44.80
2023-02-12T03:07:21.100Z,46.00
2023-02-12T03:08:21.090Z,40.90
2023-02-12T03:09:21.086Z,40.20
2023-02-12T03:10:21.076Z,40.30
2023-02-12T03:11:21.067Z,36.10
2023-02-12T03:12:21.085Z,36.30
2023-02-12T03:13:21.053Z,36.70
2023-02-12T03:14:21.043Z,34.40
2023-02-12T03:15:21.041Z,38.30
2023-02-12T03:16:21.046Z,40.10
2023-02-12T03:17:21.023Z,39.40
2023-02-12T03:18:21.012Z,41.30
2023-02-12T03:19:21.006Z,41.80
2023-02-12T03:20:21.009Z,38.60
2023-02-12T03:21:20.992Z,38.70
2023-02-12T03:22:20.982Z,38.60
2023-02-12T03:23:20.977Z,36.10
2023-02-12T03:24:20.971Z,32.40
2023-02-12T03:25:20.960Z,32.60
2023-02-12T03:26:20.956Z,32.20
2023-02-12T03:27:20.947Z,34.50
2023-02-12T03:28:21.023Z,34.20
2023-02-12T03:29:20.934Z,36.40
2023-02-12T03:30:20.921Z,35.40
2023-02-12T03:31:21.026Z,37.70
2023-02-12T03:32:20.905Z,37.40
2023-02-12T03:33:20.906Z,40.00
2023-02-12T03:34:20.892Z,39.00
2023-02-12T03:35:20.888Z,42.00
2023-02-12T03:36:20.878Z,43.70
2023-02-12T03:37:20.873Z,43.80
2023-02-12T03:38:20.880Z,39.10
2023-02-12T03:39:20.856Z,41.50
2023-02-12T03:40:20.861Z,41.30
2023-02-12T03:41:20.837Z,40.30
2023-02-12T03:42:20.833Z,38.30
2023-02-12T03:43:20.823Z,38.70
2023-02-12T03:44:20.851Z,38.10
2023-02-12T03:45:20.807Z,37.50
2023-02-12T03:46:20.947Z,38.10
2023-02-12T03:47:20.796Z,37.40
2023-02-12T03:48:20.784Z,39.20
2023-02-12T03:49:20.777Z,38.70
2023-02-12T03:50:20.770Z,38.80
2023-02-12T03:51:20.764Z,40.20
2023-02-12T03:52:20.752Z,41.00
2023-02-12T03:53:20.752Z,40.40
2023-02-12T03:54:20.769Z,43.30
2023-02-12T03:55:20.726Z,44.80
2023-02-12T03:56:20.719Z,46.90
2023-02-12T03:57:20.713Z,45.90
2023-02-12T03:58:20.707Z,48.60
2023-02-12T03:59:20.694Z,52.70
2023-02-12T04:00:20.722Z,47.60
2023-02-12T04:01:20.762Z,44.70
2023-02-12T04:02:20.695Z,49.20
2023-02-12T04:03:20.663Z,50.40
2023-02-12T04:04:20.707Z,49.10
2023-02-12T04:05:20.652Z,50.60
2023-02-12T04:06:20.639Z,48.90
2023-02-12T04:07:20.633Z,49.40
2023-02-12T04:08:20.622Z,49.50
2023-02-12T04:09:20.617Z,40.90
2023-02-12T04:10:20.610Z,41.60
2023-02-12T04:11:20.617Z,41.50
2023-02-12T04:12:20.602Z,43.90
2023-02-12T04:13:20.587Z,47.20
2023-02-12T04:14:20.584Z,46.70
2023-02-12T04:15:20.567Z,46.20
2023-02-12T04:16:20.619Z,42.20
2023-02-12T04:17:20.562Z,42.80
2023-02-12T04:18:20.544Z,43.40
2023-02-12T04:19:20.536Z,42.50
2023-02-12T04:20:20.533Z,46.70
2023-02-12T04:21:20.521Z,46.90
2023-02-12T04:22:20.516Z,44.70
2023-02-12T04:23:20.503Z,42.70
2023-02-12T04:24:20.498Z,40.50
2023-02-12T04:25:20.491Z,42.30
2023-02-12T04:26:20.482Z,42.40
2023-02-12T04:27:20.474Z,41.90
2023-02-12T04:28:20.564Z,43.70
2023-02-12T04:29:20.470Z,44.50
2023-02-12T04:30:20.452Z,40.60
2023-02-12T04:31:20.557Z,40.30
2023-02-12T04:32:20.460Z,40.50
2023-02-12T04:33:20.428Z,41.80
2023-02-12T04:34:20.424Z,43.60
2023-02-12T04:35:20.427Z,43.80
2023-02-12T04:36:20.409Z,42.30
2023-02-12T04:37:20.397Z,42.90
2023-02-12T04:38:20.395Z,42.50
2023-02-12T04:39:20.383Z,40.40
2023-02-12T04:40:20.378Z,40.60
2023-02-12T04:41:20.380Z,39.90
2023-02-12T04:42:20.370Z,39.70
2023-02-12T04:43:20.352Z,41.60
2023-02-12T04:44:20.348Z,46.70
2023-02-12T04:45:20.342Z,49.50
2023-02-12T04:46:20.405Z,49.50
2023-02-12T04:47:20.320Z,49.10
2023-02-12T04:48:20.341Z,49.70
2023-02-12T04:49:20.320Z,48.70
2023-02-12T04:50:20.302Z,46.50
2023-02-12T04:51:20.327Z,46.50
2023-02-12T04:52:20.285Z,46.30
2023-02-12T04:53:20.276Z,47.30
2023-02-12T04:54:20.286Z,46.50
2023-02-12T04:55:20.264Z,44.50
2023-02-12T04:56:20.255Z,42.70
2023-02-12T04:57:20.247Z,41.40
2023-02-12T04:58:20.240Z,39.80
2023-02-12T04:59:20.232Z,41.40
2023-02-12T05:00:20.228Z,41.40
2023-02-12T05:01:20.267Z,41.80
2023-02-12T05:02:20.206Z,43.00
2023-02-12T05:03:20.209Z,42.20
2023-02-12T05:04:20.216Z,41.90
2023-02-12T05:05:20.345Z,41.70
2023-02-12T05:06:20.176Z,40.90
2023-02-12T05:07:20.168Z,40.20
2023-02-12T05:08:20.163Z,37.50
2023-02-12T05:09:20.161Z,35.40
2023-02-12T05:10:20.162Z,37.50
2023-02-12T05:11:20.142Z,39.50
2023-02-12T05:12:20.149Z,40.80
2023-02-12T05:13:20.132Z,39.10
2023-02-12T05:14:20.123Z,36.30
2023-02-12T05:15:20.116Z,35.40
2023-02-12T05:16:20.164Z,33.60
2023-02-12T05:17:20.094Z,37.20
2023-02-12T05:18:20.089Z,37.60
2023-02-12T05:19:20.073Z,40.20
2023-02-12T05:20:20.092Z,42.50
2023-02-12T05:21:20.065Z,45.80
2023-02-12T05:22:20.056Z,46.30
2023-02-12T05:23:20.044Z,46.30
2023-02-12T05:24:20.046Z,48.90
2023-02-12T05:25:20.029Z,45.80
2023-02-12T05:26:20.030Z,41.40
2023-02-12T05:27:20.020Z,42.10
2023-02-12T05:28:20.037Z,32.50
2023-02-12T05:29:19.998Z,37.60
2023-02-12T05:30:19.992Z,41.50
2023-02-12T05:31:21.387Z,40.50
2023-02-12T05:32:20.026Z,42.70
2023-02-12T05:33:19.970Z,40.30
2023-02-12T05:34:19.961Z,38.70
2023-02-12T05:35:19.967Z,37.80
2023-02-12T05:36:19.969Z,35.80
2023-02-12T05:37:19.944Z,37.00
2023-02-12T05:38:19.938Z,37.70
2023-02-12T05:39:19.919Z,42.50
2023-02-12T05:40:19.916Z,43.20
2023-02-12T05:41:19.902Z,41.70
2023-02-12T05:42:19.896Z,44.00
2023-02-12T05:43:19.884Z,45.70
2023-02-12T05:44:19.886Z,46.70
2023-02-12T05:45:19.871Z,45.30
2023-02-12T05:46:19.919Z,41.60
2023-02-12T05:47:19.865Z,43.70
2023-02-12T05:48:19.863Z,39.70
2023-02-12T05:49:19.841Z,38.80
2023-02-12T05:50:19.833Z,39.70
2023-02-12T05:51:19.823Z,42.10
2023-02-12T05:52:19.845Z,42.10
2023-02-12T05:53:19.807Z,42.80
2023-02-12T05:54:19.803Z,42.80
2023-02-12T05:55:19.788Z,42.90
2023-02-12T05:56:19.784Z,37.90
2023-02-12T05:57:19.778Z,38.80
2023-02-12T05:58:19.771Z,37.10
2023-02-12T05:59:19.764Z,34.40
2023-02-12T06:00:19.796Z,38.90
2023-02-12T06:01:19.760Z,39.90
2023-02-12T06:02:19.780Z,40.00
2023-02-12T06:03:19.734Z,38.00
2023-02-12T06:04:19.827Z,38.40
2023-02-12T06:05:19.712Z,39.90
2023-02-12T06:06:19.701Z,40.10
2023-02-12T06:07:19.695Z,39.30
2023-02-12T06:08:19.712Z,40.00
2023-02-12T06:09:19.680Z,42.50
2023-02-12T06:10:19.674Z,43.40
2023-02-12T06:11:19.669Z,43.70
2023-02-12T06:12:19.668Z,40.50
2023-02-12T06:13:19.656Z,36.80
2023-02-12T06:14:19.650Z,39.10
2023-02-12T06:15:19.635Z,37.00
2023-02-12T06:16:19.712Z,36.20
2023-02-12T06:17:19.620Z,36.70
2023-02-12T06:18:19.614Z,33.10
2023-02-12T06:19:19.619Z,35.70
2023-02-12T06:20:19.597Z,34.80
2023-02-12T06:21:19.598Z,35.70
2023-02-12T06:22:19.579Z,38.30
2023-02-12T06:23:19.573Z,40.20
2023-02-12T06:24:19.737Z,41.10
2023-02-12T06:25:19.557Z,39.90
2023-02-12T06:26:19.552Z,41.50
2023-02-12T06:27:19.561Z,40.90
2023-02-12T06:28:19.557Z,40.10
2023-02-12T06:29:19.525Z,41.40
2023-02-12T06:30:19.526Z,39.50
2023-02-12T06:31:19.657Z,40.90
2023-02-12T06:32:19.647Z,42.90
2023-02-12T06:33:19.500Z,42.40
2023-02-12T06:34:19.508Z,40.40
2023-02-12T06:35:19.481Z,38.70
2023-02-12T06:36:19.478Z,39.50
2023-02-12T06:37:19.466Z,42.50
2023-02-12T06:38:19.469Z,42.20
2023-02-12T06:39:19.458Z,45.10
2023-02-12T06:40:19.465Z,47.70
2023-02-12T06:41:19.439Z,42.80
2023-02-12T06:42:19.450Z,41.70
2023-02-12T06:43:19.433Z,38.10
2023-02-12T06:44:19.415Z,37.50
2023-02-12T06:45:19.403Z,37.20
2023-02-12T06:46:19.461Z,42.50
2023-02-12T06:47:19.395Z,42.90
2023-02-12T06:48:19.384Z,40.70
2023-02-12T06:49:19.378Z,41.70
2023-02-12T06:50:19.380Z,43.10
2023-02-12T06:51:19.358Z,40.80
2023-02-12T06:52:19.356Z,45.30
2023-02-12T06:53:19.345Z,46.20
2023-02-12T06:54:19.336Z,40.10
2023-02-12T06:55:19.326Z,40.30
2023-02-12T06:56:19.350Z,43.70
2023-02-12T06:57:19.314Z,46.20
2023-02-12T06:58:19.314Z,48.40
2023-02-12T06:59:19.305Z,49.40
2023-02-12T07:00:20.113Z,48.60
2023-02-12T07:01:19.294Z,46.90
2023-02-12T07:02:19.281Z,45.50
2023-02-12T07:03:19.268Z,44.50
2023-02-12T07:04:19.303Z,44.90
2023-02-12T07:05:19.254Z,47.70
2023-02-12T07:06:19.246Z,49.50
2023-02-12T07:07:19.234Z,48.40
2023-02-12T07:08:19.227Z,49.70
2023-02-12T07:09:19.218Z,50.20
2023-02-12T07:10:19.216Z,50.60
2023-02-12T07:11:19.202Z,48.90
2023-02-12T07:12:19.220Z,47.60
2023-02-12T07:13:19.188Z,47.50
2023-02-12T07:14:19.182Z,45.80
2023-02-12T07:15:19.180Z,46.60
2023-02-12T07:16:19.297Z,47.10
2023-02-12T07:17:19.161Z,45.10
2023-02-12T07:18:19.150Z,46.20
2023-02-12T07:19:19.177Z,44.70
2023-02-12T07:20:19.140Z,45.90
2023-02-12T07:21:19.125Z,44.40
2023-02-12T07:22:19.145Z,43.50
2023-02-12T07:23:19.115Z,42.80
2023-02-12T07:24:19.114Z,48.10
2023-02-12T07:25:19.099Z,50.30
2023-02-12T07:26:19.087Z,49.20
2023-02-12T07:27:19.082Z,50.30
2023-02-12T07:28:19.123Z,50.40
2023-02-12T07:29:19.064Z,50.10
2023-02-12T07:30:19.057Z,48.90
2023-02-12T07:31:19.266Z,45.60
2023-02-12T07:32:19.040Z,45.40
2023-02-12T07:33:19.033Z,44.20
2023-02-12T07:34:19.025Z,41.20
2023-02-12T07:35:19.025Z,42.20
2023-02-12T07:36:19.027Z,43.10
2023-02-12T07:37:19.004Z,44.20
2023-02-12T07:38:19.000Z,41.00
2023-02-12T07:39:18.989Z,41.90
2023-02-12T07:40:18.982Z,40.50
2023-02-12T07:41:18.994Z,40.50
2023-02-12T07:42:18.973Z,38.70
2023-02-12T07:43:18.959Z,37.90
2023-02-12T07:44:18.990Z,38.20
2023-02-12T07:45:18.947Z,40.80
2023-02-12T07:46:19.050Z,44.00
2023-02-12T07:47:18.922Z,45.70
2023-02-12T07:48:18.919Z,44.40
2023-02-12T07:49:18.910Z,43.50
2023-02-12T07:50:18.902Z,45.20
2023-02-12T07:51:18.893Z,44.60
2023-02-12T07:52:18.892Z,46.60
2023-02-12T07:53:18.885Z,45.60
2023-02-12T07:54:18.907Z,42.10
2023-02-12T07:55:18.865Z,41.80
2023-02-12T07:56:18.860Z,45.10
2023-02-12T07:57:18.849Z,45.60
2023-02-12T07:58:18.844Z,50.40
2023-02-12T07:59:18.844Z,47.90
2023-02-12T08:00:18.847Z,44.50
2023-02-12T08:01:18.820Z,45.80
2023-02-12T08:02:18.857Z,45.00
2023-02-12T08:03:18.806Z,45.90
2023-02-12T08:04:18.841Z,47.90
2023-02-12T08:05:18.789Z,47.80
2023-02-12T08:06:18.785Z,50.20
2023-02-12T08:07:18.773Z,48.90
2023-02-12T08:08:18.771Z,50.40
2023-02-12T08:09:18.763Z,49.70
2023-02-12T08:10:18.772Z,48.80
2023-02-12T08:11:18.743Z,50.50
2023-02-12T08:12:18.750Z,48.20
2023-02-12T08:13:18.728Z,47.80
2023-02-12T08:14:18.757Z,49.20
2023-02-12T08:15:18.711Z,48.40
2023-02-12T08:16:18.817Z,46.40
2023-02-12T08:17:18.697Z,45.10
2023-02-12T08:18:18.691Z,44.40
2023-02-12T08:19:21.879Z,44.50
2023-02-12T08:20:18.675Z,47.40
2023-02-12T08:21:18.668Z,44.20
2023-02-12T08:22:18.655Z,44.90
2023-02-12T08:23:18.654Z,46.40
2023-02-12T08:24:18.644Z,46.80
2023-02-12T08:25:18.635Z,48.60
2023-02-12T08:26:18.638Z,48.70
2023-02-12T08:27:18.622Z,47.50
2023-02-12T08:28:18.686Z,48.80
2023-02-12T08:29:18.626Z,48.50
2023-02-12T08:30:18.598Z,47.70
2023-02-12T08:31:18.739Z,48.20
2023-02-12T08:32:18.600Z,48.60
2023-02-12T08:33:18.598Z,50.90
2023-02-12T08:34:18.594Z,51.40
2023-02-12T08:35:18.563Z,50.20
2023-02-12T08:36:18.575Z,51.40
2023-02-12T08:37:18.544Z,52.50
2023-02-12T08:38:18.539Z,53.70
2023-02-12T08:39:18.529Z,55.30
2023-02-12T08:40:18.521Z,56.80
2023-02-12T08:41:20.601Z,59.20
2023-02-12T08:42:18.507Z,58.60
2023-02-12T08:43:18.502Z,57.40
2023-02-12T08:44:18.489Z,57.60
2023-02-12T08:45:18.487Z,58.20
2023-02-12T08:46:18.546Z,58.70
2023-02-12T08:47:18.468Z,56.40
2023-02-12T08:48:18.478Z,59.40
2023-02-12T08:49:18.452Z,57.50
2023-02-12T08:50:18.440Z,59.50
2023-02-12T08:51:18.438Z,58.90
2023-02-12T08:52:18.424Z,57.60
2023-02-12T08:53:18.421Z,60.50
2023-02-12T08:54:18.409Z,58.10
2023-02-12T08:55:18.402Z,60.70
2023-02-12T08:56:18.406Z,61.30
2023-02-12T08:57:18.395Z,61.30
2023-02-12T08:58:18.381Z,62.10
2023-02-12T08:59:18.388Z,61.90
2023-02-12T09:00:18.363Z,61.20
2023-02-12T09:01:18.414Z,59.70
2023-02-12T09:02:18.423Z,62.60
2023-02-12T09:03:18.352Z,60.90
2023-02-12T09:04:18.410Z,61.60
2023-02-12T09:05:18.325Z,61.00
2023-02-12T09:06:18.317Z,63.10
2023-02-12T09:07:18.316Z,62.10
2023-02-12T09:08:18.300Z,60.30
2023-02-12T09:09:18.292Z,61.20
2023-02-12T09:10:18.284Z,62.90
2023-02-12T09:11:18.282Z,62.80
2023-02-12T09:12:18.268Z,63.10
2023-02-12T09:13:18.271Z,61.60
2023-02-12T09:14:18.251Z,61.90
2023-02-12T09:15:18.246Z,62.20
2023-02-12T09:16:18.264Z,61.70
2023-02-12T09:17:18.233Z,60.70
2023-02-12T09:18:18.222Z,61.10
2023-02-12T09:19:18.217Z,60.50
2023-02-12T09:20:18.235Z,61.20
2023-02-12T09:21:18.203Z,61.60
2023-02-12T09:22:18.194Z,61.00
2023-02-12T09:23:18.187Z,62.60
2023-02-12T09:24:18.182Z,61.80
2023-02-12T09:25:18.376Z,62.30
2023-02-12T09:26:18.163Z,64.10
2023-02-12T09:27:18.158Z,60.70
2023-02-12T09:28:18.268Z,61.80
2023-02-12T09:29:18.144Z,61.70
2023-02-12T09:30:18.137Z,61.60
2023-02-12T09:31:18.342Z,63.10
2023-02-12T09:32:18.122Z,62.20
2023-02-12T09:33:18.115Z,61.00
2023-02-12T09:34:18.110Z,61.30
2023-02-12T09:35:18.101Z,63.10
2023-02-12T09:36:18.112Z,61.80
2023-02-12T09:37:18.086Z,61.50
2023-02-12T09:38:18.081Z,61.90
2023-02-12T09:39:18.092Z,59.70
2023-02-12T09:40:18.063Z,62.30
2023-02-12T09:41:18.059Z,61.80
2023-02-12T09:42:18.071Z,62.20
2023-02-12T09:43:18.040Z,61.10
2023-02-12T09:44:18.037Z,62.00
2023-02-12T09:45:18.041Z,61.70
2023-02-12T09:46:18.060Z,61.10
2023-02-12T09:47:18.015Z,60.10
2023-02-12T09:48:18.005Z,59.70
2023-02-12T09:49:18.004Z,59.80
2023-02-12T09:50:17.991Z,60.20
2023-02-12T09:51:17.980Z,58.50
2023-02-12T09:52:18.014Z,57.30
2023-02-12T09:53:17.967Z,57.40
2023-02-12T09:54:17.958Z,54.20
2023-02-12T09:55:17.961Z,54.30
2023-02-12T09:56:17.946Z,54.80
2023-02-12T09:57:17.945Z,55.50
2023-02-12T09:58:17.931Z,56.50
2023-02-12T09:59:17.928Z,55.60
2023-02-12T10:00:17.927Z,56.40
2023-02-12T10:01:17.993Z,55.70
2023-02-12T10:02:17.905Z,55.40
2023-02-12T10:03:17.897Z,56.90
2023-02-12T10:04:17.926Z,54.90
2023-02-12T10:05:17.883Z,56.60
2023-02-12T10:06:17.878Z,56.30
2023-02-12T10:07:17.870Z,54.30
2023-02-12T10:08:18.590Z,53.60
2023-02-12T10:09:17.866Z,55.00
2023-02-12T10:10:17.849Z,54.60
2023-02-12T10:11:17.844Z,55.60
2023-02-12T10:12:17.836Z,55.70
2023-02-12T10:13:17.843Z,56.60
2023-02-12T10:14:17.818Z,55.60
2023-02-12T10:15:17.815Z,54.80
2023-02-12T10:16:17.878Z,55.00
2023-02-12T10:17:17.805Z,55.30
2023-02-12T10:18:17.789Z,53.50
2023-02-12T10:19:17.784Z,52.70
2023-02-12T10:20:17.775Z,52.20
2023-02-12T10:21:17.775Z,55.10
2023-02-12T10:22:17.760Z,51.40
2023-02-12T10:23:17.774Z,53.00
2023-02-12T10:24:17.771Z,52.20
2023-02-12T10:25:17.747Z,49.90
2023-02-12T10:26:17.936Z,49.00
2023-02-12T10:27:17.734Z,51.20
2023-02-12T10:28:17.776Z,53.50
2023-02-12T10:29:17.717Z,53.70
2023-02-12T10:30:17.718Z,52.20
2023-02-12T10:31:17.863Z,52.30
2023-02-12T10:32:17.703Z,51.40
2023-02-12T10:33:17.689Z,50.20
2023-02-12T10:34:17.671Z,51.00
2023-02-12T10:35:17.676Z,51.00
2023-02-12T10:36:17.656Z,50.40
2023-02-12T10:37:17.649Z,50.90
2023-02-12T10:38:17.641Z,51.10
2023-02-12T10:39:17.634Z,50.30
2023-02-12T10:40:17.649Z,50.60
2023-02-12T10:41:17.625Z,48.80
2023-02-12T10:42:17.609Z,49.00
2023-02-12T10:43:17.607Z,48.70
2023-02-12T10:44:17.606Z,49.40
2023-02-12T10:45:17.592Z,47.80
2023-02-12T10:46:17.666Z,48.50
2023-02-12T10:47:17.580Z,48.70
2023-02-12T10:48:19.061Z,46.80
2023-02-12T10:49:17.581Z,47.50
2023-02-12T10:50:17.552Z,46.00
2023-02-12T10:51:17.547Z,43.70
2023-02-12T10:52:17.544Z,43.90
2023-02-12T10:53:17.534Z,44.10
2023-02-12T10:54:17.524Z,44.80
2023-02-12T10:55:17.520Z,44.10
2023-02-12T10:56:17.529Z,44.50
2023-02-12T10:57:17.506Z,43.10
2023-02-12T10:58:17.494Z,42.20
2023-02-12T10:59:17.490Z,42.50
2023-02-12T11:00:17.482Z,41.30
2023-02-12T11:01:17.618Z,39.20
2023-02-12T11:02:17.469Z,38.10
2023-02-12T11:03:17.461Z,36.30
2023-02-12T11:04:17.458Z,37.10
2023-02-12T11:05:17.541Z,37.40
2023-02-12T11:06:17.441Z,40.80
2023-02-12T11:07:17.434Z,37.70
2023-02-12T11:08:17.431Z,35.20
2023-02-12T11:09:17.422Z,35.90
2023-02-12T11:10:17.414Z,37.90
2023-02-12T11:11:17.405Z,37.40
2023-02-12T11:12:17.421Z,37.50
2023-02-12T11:13:17.394Z,38.10
2023-02-12T11:14:17.384Z,38.30
2023-02-12T11:15:17.378Z,38.30
2023-02-12T11:16:17.465Z,38.30
2023-02-12T11:17:17.365Z,37.30
2023-02-12T11:18:17.357Z,36.90
2023-02-12T11:19:17.356Z,37.00
2023-02-12T11:20:17.344Z,36.40
2023-02-12T11:21:17.337Z,35.70
2023-02-12T11:22:17.329Z,36.00
2023-02-12T11:23:17.324Z,35.00
2023-02-12T11:24:17.317Z,36.60
2023-02-12T11:25:17.313Z,32.70
2023-02-12T11:26:17.503Z,31.00
2023-02-12T11:27:17.295Z,30.90
2023-02-12T11:28:17.467Z,30.90
2023-02-12T11:29:17.450Z,33.00
2023-02-12T11:30:17.275Z,33.90
2023-02-12T11:31:17.369Z,32.60
2023-02-12T11:32:17.275Z,32.20
2023-02-12T11:33:17.254Z,31.10
2023-02-12T11:34:17.250Z,31.70
2023-02-12T11:35:17.239Z,32.20
2023-02-12T11:36:17.231Z,31.70
2023-02-12T11:37:17.228Z,32.50
2023-02-12T11:38:17.219Z,31.50
2023-02-12T11:39:17.221Z,31.90
2023-02-12T11:40:17.209Z,32.60
2023-02-12T11:41:17.204Z,32.10
2023-02-12T11:42:17.198Z,32.40
2023-02-12T11:43:17.186Z,32.30
2023-02-12T11:44:17.205Z,32.60
2023-02-12T11:45:17.179Z,31.60
2023-02-12T11:46:17.180Z,30.80
2023-02-12T11:47:17.162Z,31.50
2023-02-12T11:48:17.155Z,31.60
2023-02-12T11:49:17.150Z,31.70
2023-02-12T11:50:17.142Z,30.30
2023-02-12T11:51:17.137Z,30.80
2023-02-12T11:52:17.128Z,33.80
2023-02-12T11:53:17.123Z,32.30
2023-02-12T11:54:17.118Z,31.30
2023-02-12T11:55:17.107Z,30.10
2023-02-12T11:56:17.103Z,29.30
2023-02-12T11:57:17.096Z,29.20
2023-02-12T11:58:17.093Z,29.00
2023-02-12T11:59:17.082Z,28.80
2023-02-12T12:00:17.104Z,30.00
2023-02-12T12:01:19.425Z,31.10
2023-02-12T12:02:17.123Z,31.00
2023-02-12T12:03:17.100Z,31.00
2023-02-12T12:04:17.047Z,29.90
2023-02-12T12:05:17.037Z,30.50
2023-02-12T12:06:17.034Z,29.60
2023-02-12T12:07:17.027Z,30.80
2023-02-12T12:08:17.021Z,31.00
2023-02-12T12:09:17.011Z,31.00
2023-02-12T12:10:17.010Z,30.30
2023-02-12T12:11:16.995Z,30.50
2023-02-12T12:12:16.998Z,27.50
2023-02-12T12:13:16.993Z,29.70
2023-02-12T12:14:16.980Z,30.30
2023-02-12T12:15:16.972Z,29.70
2023-02-12T12:16:17.027Z,30.40
2023-02-12T12:17:16.960Z,30.30
2023-02-12T12:18:16.947Z,30.20
2023-02-12T12:19:16.947Z,31.40
2023-02-12T12:20:16.935Z,30.90
2023-02-12T12:21:16.932Z,30.90
2023-02-12T12:22:16.921Z,31.20
2023-02-12T12:23:16.915Z,31.10
2023-02-12T12:24:16.908Z,31.20
2023-02-12T12:25:16.904Z,30.70
2023-02-12T12:26:16.898Z,30.70
2023-02-12T12:27:16.888Z,31.50
2023-02-12T12:28:16.901Z,30.70
2023-02-12T12:29:16.879Z,30.40
2023-02-12T12:30:16.958Z,31.20
2023-02-12T12:31:16.928Z,33.00
2023-02-12T12:32:16.880Z,32.10
2023-02-12T12:33:16.850Z,31.20
2023-02-12T12:34:16.846Z,31.20
2023-02-12T12:35:16.864Z,30.60
2023-02-12T12:36:16.834Z,29.90
2023-02-12T12:37:16.828Z,29.60
2023-02-12T12:38:16.815Z,28.80
2023-02-12T12:39:16.810Z,29.10
2023-02-12T12:40:16.895Z,28.20
2023-02-12T12:41:16.795Z,28.40
2023-02-12T12:42:16.789Z,29.60
2023-02-12T12:43:16.780Z,28.10
2023-02-12T12:44:16.780Z,27.80
2023-02-12T12:45:16.773Z,28.20
2023-02-12T12:46:16.778Z,28.20
2023-02-12T12:47:16.756Z,29.30
2023-02-12T12:48:16.772Z,30.50
2023-02-12T12:49:16.741Z,30.10
2023-02-12T12:50:16.739Z,29.80
2023-02-12T12:51:16.729Z,28.90
2023-02-12T12:52:16.724Z,29.70